Time;durP1;ratioP1;P1;durP2;ratioP2;P2;SDS_P1;SDS_P2;PMS_P1;PMS_P2;Temp;Humidity;BMP_temperature;BMP_pressure;BME280_temperature;BME280_humidity;BME280_pressure;Samples;Min_cycle;Max_cycle;Signal;HPM_P1;HPM_P2
2023/01/11 00:01:53;;;;;;;10.95;5.47;;;6.10;99.90;;;;;;4994553;28;20466;-73
2023/01/11 00:04:19;;;;;;;12.73;5.30;;;6.10;99.90;;;;;;4994275;28;20053;-74
2023/01/11 00:06:46;;;;;;;12.35;5.88;;;6.10;99.90;;;;;;4995556;28;20030;-73
2023/01/11 00:09:12;;;;;;;12.02;5.68;;;6.10;99.90;;;;;;4994248;28;20433;-74
2023/01/11 00:11:38;;;;;;;10.48;5.45;;;6.00;99.90;;;;;;4994769;28;20052;-73
2023/01/11 00:14:04;;;;;;;9.63;5.05;;;6.10;99.90;;;;;;4992830;28;20466;-72
2023/01/11 00:16:30;;;;;;;8.55;5.68;;;6.10;99.90;;;;;;4994674;28;20467;-74
2023/01/11 00:18:56;;;;;;;11.00;6.13;;;6.10;99.90;;;;;;4993906;28;20061;-74
2023/01/11 00:21:21;;;;;;;12.13;5.82;;;6.10;99.90;;;;;;4994305;28;20026;-74
2023/01/11 00:23:48;;;;;;;8.82;5.43;;;6.10;99.90;;;;;;4994095;28;20366;-74
2023/01/11 00:26:15;;;;;;;9.35;5.80;;;6.10;99.90;;;;;;4994241;28;20046;-74
2023/01/11 00:28:41;;;;;;;11.93;6.13;;;6.10;99.90;;;;;;4993831;28;20019;-75
2023/01/11 00:31:08;;;;;;;9.52;6.10;;;6.10;99.90;;;;;;4992869;28;20072;-74
2023/01/11 00:33:34;;;;;;;10.80;6.40;;;6.10;99.90;;;;;;4994087;28;20026;-75
2023/01/11 00:36:00;;;;;;;10.43;5.90;;;6.10;99.90;;;;;;4993040;28;20085;-74
2023/01/11 00:49:25;;;;;;;9.90;5.40;;;6.10;99.90;;;;;;4993865;28;20117;-73
2023/01/11 00:51:52;;;;;;;9.90;5.63;;;6.10;99.90;;;;;;4994087;28;20157;-74
2023/01/11 00:54:18;;;;;;;9.98;5.22;;;6.10;99.90;;;;;;4993952;28;20034;-74
2023/01/11 00:56:45;;;;;;;10.57;5.57;;;6.10;99.90;;;;;;4993160;28;20015;-73
2023/01/11 00:59:11;;;;;;;12.25;6.22;;;6.10;99.90;;;;;;4991913;28;20383;-75
2023/01/11 01:01:37;;;;;;;9.63;5.78;;;6.10;99.90;;;;;;4993261;28;20038;-74
2023/01/11 01:04:03;;;;;;;10.38;5.47;;;6.10;99.90;;;;;;4993093;28;20050;-74
2023/01/11 01:06:29;;;;;;;10.52;5.85;;;6.10;99.90;;;;;;4992752;28;20116;-74
2023/01/11 01:08:55;;;;;;;10.70;5.82;;;6.10;99.90;;;;;;4992276;28;20023;-75
2023/01/11 01:11:22;;;;;;;11.52;5.70;;;6.00;99.90;;;;;;4993313;28;20058;-73
2023/01/11 01:16:33;;;;;;;15.32;5.63;;;6.10;99.90;;;;;;4991744;28;20466;-73
2023/01/11 01:18:59;;;;;;;12.38;5.30;;;6.10;99.90;;;;;;4995914;28;20113;-74
2023/01/11 01:21:26;;;;;;;10.82;5.50;;;6.10;99.90;;;;;;4992978;28;20489;-72
2023/01/11 01:23:56;;;;;;;9.68;4.90;;;6.10;99.90;;;;;;4992769;28;20393;-72
2023/01/11 01:26:22;;;;;;;11.60;5.80;;;6.10;99.90;;;;;;4992793;28;20034;-73
2023/01/11 01:28:51;;;;;;;10.50;5.47;;;6.10;99.90;;;;;;4992831;28;20465;-73
2023/01/11 01:31:17;;;;;;;14.18;6.57;;;6.10;99.90;;;;;;4988401;28;20030;-73
2023/01/11 01:33:43;;;;;;;10.93;5.72;;;6.10;99.90;;;;;;4992197;28;20026;-72
2023/01/11 01:36:09;;;;;;;9.23;5.65;;;6.10;99.90;;;;;;4993097;28;20022;-73
2023/01/11 01:38:35;;;;;;;10.95;5.50;;;6.00;99.90;;;;;;4997074;28;20017;-72
2023/01/11 01:41:02;;;;;;;10.30;5.85;;;6.00;99.90;;;;;;4996901;28;20026;-73
2023/01/11 01:43:56;;;;;;;12.80;5.78;;;6.00;99.90;;;;;;4996885;28;20490;-73
2023/01/11 01:46:27;;;;;;;12.93;6.43;;;6.00;99.90;;;;;;4995614;28;20050;-73
2023/01/11 01:48:55;;;;;;;9.00;5.28;;;6.00;99.90;;;;;;5008032;28;20033;-72
2023/01/11 01:51:43;;;;;;;9.65;5.38;;;6.00;99.90;;;;;;4998414;28;20026;-73
2023/01/11 01:54:13;;;;;;;11.93;6.18;;;6.00;99.90;;;;;;4993038;28;20018;-73
2023/01/11 01:56:46;;;;;;;14.95;5.65;;;6.00;99.90;;;;;;4993054;28;20458;-73
2023/01/11 01:59:15;;;;;;;10.85;5.45;;;6.00;99.90;;;;;;4992769;28;20050;-73
2023/01/11 02:01:46;;;;;;;12.70;5.60;;;6.00;99.90;;;;;;4996437;28;20026;-72
2023/01/11 02:04:39;;;;;;;12.32;6.78;;;6.00;99.90;;;;;;4996200;28;20029;-73
2023/01/11 02:07:18;;;;;;;11.13;5.45;;;5.90;99.90;;;;;;4993515;28;20030;-72
2023/01/11 02:09:56;;;;;;;12.10;6.20;;;5.90;99.90;;;;;;4993995;28;20528;-72
2023/01/11 02:12:24;;;;;;;10.27;5.40;;;5.80;99.90;;;;;;4996250;28;20474;-73
2023/01/11 02:14:53;;;;;;;9.35;4.82;;;5.80;99.90;;;;;;4996332;28;20022;-73
2023/01/11 02:17:20;;;;;;;7.75;4.93;;;5.80;99.90;;;;;;4994267;28;20125;-73
2023/01/11 02:19:51;;;;;;;10.57;5.50;;;5.90;99.90;;;;;;4996598;28;20389;-73
2023/01/11 02:22:36;;;;;;;10.95;5.80;;;5.80;99.90;;;;;;4996209;28;20034;-73
2023/01/11 02:25:22;;;;;;;11.05;6.20;;;5.80;99.90;;;;;;4996062;28;20034;-73
2023/01/11 02:27:57;;;;;;;10.10;5.78;;;5.80;99.90;;;;;;4993524;28;20026;-73
2023/01/11 02:30:31;;;;;;;12.02;6.45;;;5.80;99.90;;;;;;4995994;28;20037;-72
2023/01/11 02:33:26;;;;;;;10.80;5.82;;;5.80;99.90;;;;;;4995915;28;20466;-72
2023/01/11 02:36:07;;;;;;;11.95;6.15;;;5.80;99.90;;;;;;4981158;28;20066;-72
2023/01/11 02:38:40;;;;;;;9.93;5.82;;;5.70;99.90;;;;;;4996010;28;20037;-72
2023/01/11 02:41:12;;;;;;;12.68;7.15;;;5.80;99.90;;;;;;4996072;28;20019;-72
2023/01/11 02:46:56;;;;;;;10.35;5.07;;;5.70;99.90;;;;;;4992140;28;20038;-73
2023/01/11 02:49:34;;;;;;;10.75;5.43;;;5.70;99.90;;;;;;4991754;28;20475;-73
2023/01/11 02:52:09;;;;;;;9.30;5.53;;;5.70;99.90;;;;;;4995679;28;20117;-72
2023/01/11 02:54:38;;;;;;;10.80;5.95;;;5.70;99.90;;;;;;4992515;28;20524;-73
2023/01/11 02:57:06;;;;;;;9.02;5.50;;;5.70;99.90;;;;;;4995562;28;20470;-73
2023/01/11 02:59:35;;;;;;;9.15;4.93;;;5.60;99.90;;;;;;4995070;28;20030;-72
2023/01/11 03:02:01;;;;;;;11.30;5.88;;;5.60;99.90;;;;;;4993381;28;20019;-72
2023/01/11 03:04:28;;;;;;;12.23;5.75;;;5.60;99.90;;;;;;4995095;28;20037;-72
2023/01/11 03:07:26;;;;;;;11.50;4.95;;;5.60;99.90;;;;;;4991508;28;20485;-72
2023/01/11 03:10:22;;;;;;;8.65;5.10;;;5.60;99.90;;;;;;4954266;28;20035;-73
2023/01/11 03:12:56;;;;;;;10.77;5.30;;;5.60;99.90;;;;;;4954383;28;20487;-72
2023/01/11 03:15:47;;;;;;;10.27;5.80;;;5.60;99.90;;;;;;4954071;28;20027;-72
2023/01/11 03:18:22;;;;;;;10.63;4.78;;;5.50;99.90;;;;;;4954211;28;20035;-72
2023/01/11 03:21:06;;;;;;;8.65;5.25;;;5.50;99.90;;;;;;4938156;29;20109;-72
2023/01/11 03:23:44;;;;;;;12.88;5.47;;;5.50;99.90;;;;;;4954339;28;20230;-72
2023/01/11 03:26:26;;;;;;;10.15;5.18;;;5.50;99.90;;;;;;4954096;28;20101;-72
2023/01/11 03:29:15;;;;;;;10.95;5.70;;;5.50;99.90;;;;;;4954047;29;20054;-72
2023/01/11 03:32:19;;;;;;;9.73;5.50;;;5.50;99.90;;;;;;4954258;28;20095;-72
2023/01/11 03:34:48;;;;;;;;;;;5.50;99.90;;;;;;4897345;29;20428;-72
2023/01/11 03:37:26;;;;;;;11.10;4.93;;;5.50;99.90;;;;;;4896920;29;19942;-72
2023/01/11 03:40:11;;;;;;;11.63;5.13;;;5.50;99.90;;;;;;4896772;29;20132;-73
2023/01/11 03:43:09;;;;;;;13.23;7.28;;;5.50;99.90;;;;;;4897027;29;20489;-72
2023/01/11 03:45:31;;;;;;;14.65;6.90;;;5.40;99.90;;;;;;4896594;29;20048;-72
2023/01/11 03:48:00;;;;;;;13.00;6.63;;;5.40;99.90;;;;;;4951565;29;20094;-73
2023/01/11 03:50:28;;;;;;;12.50;6.28;;;5.40;99.90;;;;;;4953588;29;20067;-73
2023/01/11 03:52:56;;;;;;;15.00;6.45;;;5.40;99.90;;;;;;4950103;29;20522;-72
2023/01/11 03:55:25;;;;;;;10.65;5.82;;;5.40;99.90;;;;;;4953600;29;20166;-73
2023/01/11 03:57:53;;;;;;;12.07;5.63;;;5.30;99.90;;;;;;4953305;29;20039;-73
2023/01/11 04:00:24;;;;;;;13.40;6.13;;;5.40;99.90;;;;;;4952505;28;20024;-73
2023/01/11 04:02:52;;;;;;;9.43;5.53;;;5.30;99.90;;;;;;4950365;29;20108;-73
2023/01/11 04:05:19;;;;;;;10.10;5.15;;;5.30;99.90;;;;;;4949766;29;20035;-72
2023/01/11 04:07:44;;;;;;;11.70;5.25;;;5.30;99.90;;;;;;4956619;28;20118;-73
2023/01/11 04:10:10;;;;;;;15.75;6.13;;;5.30;99.90;;;;;;4993239;28;20077;-73
2023/01/11 04:12:36;;;;;;;10.88;5.55;;;5.30;99.90;;;;;;4994317;28;20022;-73
2023/01/11 04:15:04;;;;;;;7.90;4.45;;;5.30;99.90;;;;;;4993880;28;20585;-72
2023/01/11 04:17:31;;;;;;;9.63;5.20;;;5.30;99.90;;;;;;4993869;28;20606;-73
2023/01/11 04:19:57;;;;;;;11.07;4.70;;;5.30;99.90;;;;;;4993687;28;20053;-73
2023/01/11 04:22:22;;;;;;;12.65;6.18;;;5.20;99.90;;;;;;4994117;28;20380;-72
2023/01/11 04:24:48;;;;;;;10.82;5.35;;;5.30;99.90;;;;;;4992252;28;20506;-72
2023/01/11 04:27:14;;;;;;;9.80;5.68;;;5.30;99.90;;;;;;4993024;28;20037;-72
2023/01/11 04:29:40;;;;;;;9.60;5.03;;;5.20;99.90;;;;;;4993946;28;20029;-74
2023/01/11 04:32:06;;;;;;;10.25;5.15;;;5.20;99.90;;;;;;4993679;28;20113;-73
2023/01/11 04:38:07;;;;;;;8.27;5.05;;;5.20;99.90;;;;;;5154281;23;20416;-73
2023/01/11 04:40:33;;;;;;;8.13;4.63;;;5.20;99.90;;;;;;4994012;28;20046;-73
2023/01/11 04:43:01;;;;;;;9.85;4.35;;;5.10;99.90;;;;;;5004643;28;20473;-72
2023/01/11 04:45:28;;;;;;;13.73;4.30;;;5.10;99.90;;;;;;5008007;28;20042;-72
2023/01/11 04:47:57;;;;;;;8.25;4.78;;;5.10;99.90;;;;;;5012595;28;20045;-72
2023/01/11 04:50:26;;;;;;;7.13;4.30;;;5.10;99.90;;;;;;5012832;28;20084;-72
2023/01/11 04:52:52;;;;;;;10.70;5.38;;;5.00;99.90;;;;;;5012593;28;20030;-72
2023/01/11 04:55:19;;;;;;;10.40;4.65;;;5.00;99.90;;;;;;5012524;28;20029;-72
2023/01/11 04:57:45;;;;;;;9.60;4.45;;;5.00;99.90;;;;;;5012907;28;20076;-72
2023/01/11 05:00:12;;;;;;;7.65;4.30;;;4.90;99.90;;;;;;5012216;28;20022;-72
2023/01/11 05:02:39;;;;;;;5.93;3.90;;;4.90;99.90;;;;;;5001407;28;20042;-72
2023/01/11 05:05:06;;;;;;;8.25;4.50;;;4.90;99.90;;;;;;5010722;28;20104;-71
2023/01/11 05:07:32;;;;;;;7.78;4.03;;;4.90;99.90;;;;;;5012506;28;20037;-72
2023/01/11 05:09:58;;;;;;;6.25;3.92;;;4.90;99.90;;;;;;5012098;28;20088;-72
2023/01/11 05:12:24;;;;;;;6.03;3.67;;;4.80;99.90;;;;;;5012376;28;20026;-73
2023/01/11 05:14:50;;;;;;;6.95;3.47;;;4.80;99.90;;;;;;5001556;28;20129;-73
2023/01/11 05:17:16;;;;;;;6.57;3.53;;;4.80;99.90;;;;;;5003058;28;20022;-72
2023/01/11 05:19:42;;;;;;;6.88;4.00;;;4.70;99.90;;;;;;5003437;28;20049;-72
2023/01/11 05:22:09;;;;;;;8.32;3.88;;;4.70;99.90;;;;;;5007885;28;20050;-72
2023/01/11 05:24:35;;;;;;;8.75;3.85;;;4.70;99.90;;;;;;4988139;28;20026;-73
2023/01/11 05:27:02;;;;;;;7.90;4.35;;;4.70;99.90;;;;;;5009098;28;20056;-71
2023/01/11 05:29:28;;;;;;;7.65;4.03;;;4.70;99.90;;;;;;4995081;28;20026;-72
2023/01/11 05:31:55;;;;;;;7.38;4.57;;;4.70;99.90;;;;;;5011915;28;20494;-72
2023/01/11 05:34:20;;;;;;;7.25;3.97;;;4.70;99.90;;;;;;5012350;28;20116;-73
2023/01/11 05:36:46;;;;;;;7.72;4.40;;;4.70;99.90;;;;;;5012012;28;20113;-73
2023/01/11 05:39:13;;;;;;;8.10;4.28;;;4.70;99.90;;;;;;5011900;28;20096;-73
2023/01/11 05:41:39;;;;;;;7.78;4.30;;;4.70;99.90;;;;;;5012241;28;20044;-73
2023/01/11 05:47:13;;;;;;;7.57;4.30;;;4.70;99.90;;;;;;4932604;29;20046;-73
2023/01/11 05:49:39;;;;;;;10.30;4.45;;;4.70;99.90;;;;;;4932691;29;20463;-73
2023/01/11 05:52:05;;;;;;;9.30;4.53;;;4.70;99.90;;;;;;4932385;29;20040;-73
2023/01/11 05:54:31;;;;;;;9.80;4.63;;;4.70;99.90;;;;;;4932644;29;20019;-73
2023/01/11 05:56:57;;;;;;;7.43;4.63;;;4.60;99.90;;;;;;4932573;29;20072;-73
2023/01/11 05:59:22;;;;;;;7.65;4.22;;;4.70;99.90;;;;;;4932538;29;20063;-73
2023/01/11 06:01:49;;;;;;;8.60;4.13;;;4.70;99.90;;;;;;4932162;29;20039;-73
2023/01/11 06:04:15;;;;;;;9.13;4.72;;;4.70;99.90;;;;;;4932377;29;20107;-73
2023/01/11 06:06:41;;;;;;;10.13;5.38;;;4.70;99.90;;;;;;4932151;29;20163;-73
2023/01/11 06:09:06;;;;;;;9.05;4.93;;;4.70;99.90;;;;;;4931847;29;20430;-73
2023/01/11 06:11:32;;;;;;;10.25;5.47;;;4.70;99.90;;;;;;4932467;29;20564;-74
2023/01/11 06:13:58;;;;;;;9.98;5.63;;;4.70;99.90;;;;;;4932093;29;20035;-73
2023/01/11 06:16:24;;;;;;;10.43;5.00;;;4.70;99.90;;;;;;4932417;29;20479;-73
2023/01/11 06:18:51;;;;;;;8.35;5.10;;;4.70;99.90;;;;;;5001137;28;20112;-73
2023/01/11 06:21:18;;;;;;;10.73;5.40;;;4.70;99.90;;;;;;5011653;28;20100;-73
2023/01/11 06:23:47;;;;;;;11.43;5.43;;;4.70;99.90;;;;;;5014233;28;20354;-73
2023/01/11 06:26:15;;;;;;;14.75;5.95;;;4.70;99.90;;;;;;5015696;28;20037;-73
2023/01/11 06:28:42;;;;;;;10.40;6.25;;;4.70;99.90;;;;;;5015204;28;20026;-73
2023/01/11 06:31:08;;;;;;;16.45;8.88;;;4.70;99.90;;;;;;5015270;28;20471;-73
2023/01/11 06:33:34;;;;;;;9.48;5.97;;;4.70;99.90;;;;;;5015209;28;20030;-73
2023/01/11 06:36:09;;;;;;;10.43;5.45;;;4.70;99.90;;;;;;5015151;28;20026;-73
2023/01/11 06:38:35;;;;;;;14.32;7.60;;;4.70;99.90;;;;;;5014726;28;20057;-73
2023/01/11 06:41:03;;;;;;;14.88;8.35;;;4.70;99.90;;;;;;5014879;28;20030;-73
2023/01/11 06:43:30;;;;;;;11.68;5.93;;;4.70;99.90;;;;;;5015333;28;20026;-73
2023/01/11 06:45:57;;;;;;;13.13;5.88;;;4.70;99.90;;;;;;5014829;28;20066;-73
2023/01/11 06:48:23;;;;;;;13.68;5.45;;;4.70;99.90;;;;;;5002071;28;20026;-73
2023/01/11 06:50:57;;;;;;;14.88;5.82;;;4.70;99.90;;;;;;5014697;28;20036;-73
2023/01/11 06:53:24;;;;;;;12.30;5.70;;;4.60;99.90;;;;;;5014708;28;20168;-73
2023/01/11 06:55:52;;;;;;;13.38;5.97;;;4.60;99.90;;;;;;4997304;28;20026;-73
2023/01/11 06:58:19;;;;;;;14.30;6.85;;;4.60;99.90;;;;;;5014679;28;20109;-72
2023/01/11 07:00:45;;;;;;;10.23;5.30;;;4.60;99.90;;;;;;5014796;28;20093;-72
2023/01/11 07:03:14;;;;;;;13.18;6.53;;;4.60;99.90;;;;;;5014776;28;20461;-72
2023/01/11 07:05:42;;;;;;;10.02;5.28;;;4.60;99.90;;;;;;5014682;28;20034;-72
2023/01/11 07:08:08;;;;;;;8.98;5.22;;;4.60;99.90;;;;;;5014521;28;20535;-73
2023/01/11 07:10:35;;;;;;;12.90;5.68;;;4.50;99.90;;;;;;5014274;28;20046;-73
2023/01/11 07:13:01;;;;;;;10.90;5.82;;;4.60;99.90;;;;;;5014732;28;20080;-73
2023/01/11 07:15:27;;;;;;;12.30;6.15;;;4.60;99.90;;;;;;5014303;28;20025;-72
2023/01/11 07:17:55;;;;;;;15.82;5.75;;;4.60;99.90;;;;;;5005118;28;20062;-73
2023/01/11 07:20:21;;;;;;;13.88;7.00;;;4.60;99.90;;;;;;5011101;28;20073;-73
2023/01/11 07:22:47;;;;;;;13.52;7.50;;;4.50;99.90;;;;;;5014645;28;20108;-73
2023/01/11 07:25:13;;;;;;;13.05;7.05;;;4.60;99.90;;;;;;5014224;28;20022;-73
2023/01/11 07:27:39;;;;;;;11.63;6.82;;;4.60;99.90;;;;;;5014353;28;20400;-74
2023/01/11 07:30:05;;;;;;;15.77;6.82;;;4.60;99.90;;;;;;5014107;28;20018;-74
2023/01/11 07:32:31;;;;;;;12.85;6.70;;;4.60;99.90;;;;;;5014196;28;20029;-73
2023/01/11 07:34:57;;;;;;;15.88;7.32;;;4.60;99.90;;;;;;5012664;28;20030;-74
2023/01/11 07:37:26;;;;;;;15.70;7.35;;;4.60;99.90;;;;;;5014031;28;20113;-74
2023/01/11 07:39:53;;;;;;;21.88;12.20;;;4.70;99.90;;;;;;5013533;28;20049;-74
2023/01/11 07:45:04;;;;;;;15.23;9.10;;;4.60;99.90;;;;;;5013954;28;20030;-74
2023/01/11 07:47:30;;;;;;;17.60;10.30;;;4.60;99.90;;;;;;5013920;28;20030;-74
2023/01/11 07:49:55;;;;;;;20.38;12.80;;;4.60;99.90;;;;;;5013828;28;20716;-74
2023/01/11 07:52:21;;;;;;;22.67;12.98;;;4.60;99.90;;;;;;5014060;28;20030;-74
2023/01/11 07:54:47;;;;;;;24.73;13.57;;;4.60;99.90;;;;;;5013293;28;20114;-74
2023/01/11 07:57:13;;;;;;;22.77;11.02;;;4.60;99.90;;;;;;5013963;28;20022;-74
2023/01/11 07:59:38;;;;;;;24.45;14.02;;;4.60;99.90;;;;;;5013229;28;20473;-74
2023/01/11 08:02:04;;;;;;;21.25;10.95;;;4.60;99.90;;;;;;5014100;28;20120;-74
2023/01/11 08:04:30;;;;;;;20.98;11.07;;;4.60;99.90;;;;;;5013611;28;20026;-74
2023/01/11 08:06:56;;;;;;;16.63;9.30;;;4.60;99.90;;;;;;5013526;28;20048;-74
2023/01/11 08:09:22;;;;;;;20.65;12.13;;;4.60;99.90;;;;;;5013354;28;20454;-74
2023/01/11 08:14:38;;;;;;;15.93;9.38;;;4.50;99.90;;;;;;5001567;28;20036;-74
2023/01/11 08:17:06;;;;;;;14.35;8.98;;;4.50;99.90;;;;;;5012902;28;20067;-74
2023/01/11 08:19:32;;;;;;;14.43;8.25;;;4.50;99.90;;;;;;5013140;28;20053;-73
2023/01/11 08:21:58;;;;;;;19.23;10.95;;;4.50;99.90;;;;;;5012952;28;20484;-74
2023/01/11 08:24:24;;;;;;;19.00;11.13;;;4.50;99.90;;;;;;5013590;28;20026;-74
2023/01/11 08:26:50;;;;;;;18.10;10.65;;;4.50;99.90;;;;;;5013000;28;20038;-73
2023/01/11 08:29:18;;;;;;;13.85;8.52;;;4.50;99.90;;;;;;5013278;28;20053;-74
2023/01/11 08:31:45;;;;;;;16.48;8.45;;;4.50;99.90;;;;;;4995625;28;20033;-74
2023/01/11 08:34:11;;;;;;;15.73;9.45;;;4.50;99.90;;;;;;5013149;28;20018;-74
2023/01/11 08:36:37;;;;;;;16.67;9.00;;;4.50;99.90;;;;;;5013241;28;20038;-74
2023/01/11 08:39:04;;;;;;;14.65;8.48;;;4.40;99.90;;;;;;5012709;28;20145;-74
2023/01/11 08:41:31;;;;;;;17.10;9.27;;;4.50;99.90;;;;;;5012954;28;20112;-74
2023/01/11 08:43:57;;;;;;;19.25;10.20;;;4.40;99.90;;;;;;4995185;28;20366;-73
2023/01/11 08:46:24;;;;;;;15.95;9.45;;;4.50;99.90;;;;;;5012303;28;20056;-74
2023/01/11 08:48:52;;;;;;;19.10;9.70;;;4.40;99.90;;;;;;4995123;28;20033;-73
2023/01/11 08:51:18;;;;;;;20.60;9.68;;;4.50;99.90;;;;;;5012575;28;20108;-74
2023/01/11 08:53:44;;;;;;;20.10;11.45;;;4.50;99.90;;;;;;5012716;28;20105;-74
2023/01/11 08:56:11;;;;;;;17.45;8.85;;;4.50;99.90;;;;;;5012482;28;20025;-74
2023/01/11 08:58:37;;;;;;;19.08;9.93;;;4.50;99.90;;;;;;5012824;28;20495;-74
2023/01/11 09:01:06;;;;;;;20.10;10.65;;;4.50;99.90;;;;;;5012137;28;20031;-74
2023/01/11 09:03:34;;;;;;;24.40;11.95;;;4.50;99.90;;;;;;5013072;28;20044;-74
2023/01/11 09:06:00;;;;;;;23.85;14.40;;;4.50;99.90;;;;;;5012480;28;20164;-73
2023/01/11 09:08:26;;;;;;;23.73;12.63;;;4.50;99.90;;;;;;5012435;28;20113;-74
2023/01/11 09:10:52;;;;;;;18.15;9.85;;;4.50;99.90;;;;;;5012083;28;20030;-74
2023/01/11 09:13:19;;;;;;;19.83;10.70;;;4.50;99.90;;;;;;5012411;28;20469;-74
2023/01/11 09:15:45;;;;;;;17.60;10.52;;;4.50;99.90;;;;;;5012399;28;20053;-74
2023/01/11 09:18:12;;;;;;;19.73;10.43;;;4.50;99.90;;;;;;5012163;28;20477;-73
2023/01/11 09:20:38;;;;;;;17.65;9.05;;;4.50;99.90;;;;;;4999286;28;20022;-74
2023/01/11 09:23:03;;;;;;;17.23;8.98;;;4.50;99.90;;;;;;5012392;28;20038;-74
2023/01/11 09:25:29;;;;;;;15.32;8.88;;;4.40;99.90;;;;;;5012167;28;20030;-73
2023/01/11 09:27:55;;;;;;;18.48;9.63;;;4.40;99.90;;;;;;5012191;28;20033;-74
2023/01/11 09:30:22;;;;;;;11.82;7.35;;;4.40;99.90;;;;;;5012320;28;20049;-74
2023/01/11 09:32:50;;;;;;;17.60;10.02;;;4.40;99.90;;;;;;5012186;28;20080;-74
2023/01/11 09:35:16;;;;;;;14.90;8.68;;;4.30;99.90;;;;;;5012831;28;20038;-74
2023/01/11 09:37:50;;;;;;;19.40;9.23;;;4.30;99.90;;;;;;5011960;28;20029;-74
2023/01/11 09:40:34;;;;;;;15.48;7.28;;;4.30;99.90;;;;;;5008377;28;20581;-73
2023/01/11 09:43:02;;;;;;;13.80;7.38;;;4.30;99.90;;;;;;5011971;28;20026;-74
2023/01/11 09:45:30;;;;;;;15.95;8.52;;;4.30;99.90;;;;;;5012076;28;20032;-74
2023/01/11 09:48:21;;;;;;;12.02;7.20;;;4.30;99.90;;;;;;5012124;28;20037;-74
2023/01/11 09:50:48;;;;;;;15.07;8.65;;;4.30;99.90;;;;;;5011843;28;20030;-74
2023/01/11 09:53:35;;;;;;;15.85;7.22;;;4.30;99.90;;;;;;5011458;28;20010;-74
2023/01/11 09:56:04;;;;;;;15.63;7.95;;;4.30;99.90;;;;;;5011233;28;20034;-74
2023/01/11 09:58:49;;;;;;;15.07;7.38;;;4.30;99.90;;;;;;5014449;28;20026;-74
2023/01/11 10:01:22;;;;;;;19.45;8.75;;;4.40;99.90;;;;;;4997215;28;20026;-74
2023/01/11 10:03:51;;;;;;;;;;;4.40;99.90;;;;;;5015740;28;20030;-74
2023/01/11 10:06:43;;;;;;;16.17;9.52;;;4.30;99.90;;;;;;4985928;28;19919;-74
2023/01/11 10:09:27;;;;;;;15.40;7.82;;;4.40;99.90;;;;;;5013097;28;20462;-74
2023/01/11 10:12:25;;;;;;;20.80;9.75;;;4.40;99.90;;;;;;5015637;28;20037;-74
2023/01/11 10:15:24;;;;;;;15.40;8.65;;;4.40;99.90;;;;;;4989864;28;20034;-74
2023/01/11 10:17:59;;;;;;;14.80;8.20;;;4.30;99.90;;;;;;5012064;28;20037;-74
2023/01/11 10:20:41;;;;;;;11.88;7.05;;;4.30;99.90;;;;;;5015388;28;20037;-74
2023/01/11 10:23:19;;;;;;;13.80;7.07;;;4.30;99.90;;;;;;5015455;28;20026;-74
2023/01/11 10:25:53;;;;;;;17.40;8.70;;;4.30;99.90;;;;;;5015229;28;20068;-74
2023/01/11 10:28:45;;;;;;;14.23;8.25;;;4.40;99.90;;;;;;5015139;28;20026;-74
2023/01/11 10:31:43;;;;;;;19.35;9.93;;;4.40;99.90;;;;;;5015463;28;20413;-74
2023/01/11 10:37:46;;;;;;;17.27;8.80;;;4.40;99.90;;;;;;4951586;28;20103;-74
2023/01/11 10:40:32;;;;;;;17.50;8.80;;;4.50;99.90;;;;;;4959995;28;20506;-74
2023/01/11 10:43:15;;;;;;;16.20;8.07;;;4.50;99.90;;;;;;4955195;28;20372;-74
2023/01/11 10:45:52;;;;;;;14.65;8.68;;;4.60;99.90;;;;;;4960239;28;20036;-74
2023/01/11 10:48:39;;;;;;;16.52;9.13;;;4.50;99.90;;;;;;4942584;29;20195;-73
2023/01/11 10:51:26;;;;;;;18.15;9.35;;;4.50;99.90;;;;;;4951493;28;20035;-74
2023/01/11 10:54:15;;;;;;;16.90;8.35;;;4.60;99.90;;;;;;4956504;28;20167;-74
2023/01/11 10:56:49;;;;;;;18.60;8.93;;;4.60;99.90;;;;;;4951184;28;20391;-74
2023/01/11 10:59:19;;;;;;;17.77;7.93;;;4.60;99.90;;;;;;4970507;28;20047;-74
2023/01/11 11:01:58;;;;;;;19.10;8.23;;;4.70;99.90;;;;;;4952960;29;20146;-74
2023/01/11 11:04:36;;;;;;;17.42;8.27;;;4.70;99.90;;;;;;4943827;29;20118;-74
2023/01/11 11:07:12;;;;;;;22.73;10.00;;;4.70;99.90;;;;;;4944249;28;20103;-74
2023/01/11 11:09:49;;;;;;;20.08;9.55;;;4.70;99.90;;;;;;4956696;28;20558;-74
2023/01/11 11:12:38;;;;;;;19.50;9.73;;;4.70;99.90;;;;;;4930082;29;20043;-74
2023/01/11 11:15:36;;;;;;;21.58;9.60;;;4.80;99.90;;;;;;5012978;28;20030;-74
2023/01/11 11:18:02;;;;;;;16.42;8.98;;;4.80;99.90;;;;;;4906965;29;20124;-73
2023/01/11 11:20:31;;;;;;;18.63;10.25;;;4.80;99.90;;;;;;4910438;29;20059;-73
2023/01/11 11:22:58;;;;;;;20.73;9.05;;;4.90;99.90;;;;;;4902896;29;20036;-74
2023/01/11 11:25:40;;;;;;;16.70;8.50;;;4.90;99.90;;;;;;4915816;29;20036;-73
2023/01/11 11:28:26;;;;;;;15.88;8.52;;;4.90;99.90;;;;;;4915715;29;20067;-74
2023/01/11 11:30:55;;;;;;;18.58;9.20;;;4.80;99.90;;;;;;4913888;29;20028;-73
2023/01/11 11:33:23;;;;;;;17.90;9.43;;;4.90;99.90;;;;;;4915781;29;20056;-74
2023/01/11 11:36:11;;;;;;;18.52;10.15;;;4.90;99.90;;;;;;4915441;29;20067;-74
2023/01/11 11:38:59;;;;;;;25.10;11.20;;;4.90;99.90;;;;;;4914971;29;20052;-74
2023/01/11 11:41:25;;;;;;;15.13;9.25;;;4.90;99.90;;;;;;4914671;29;20048;-73
2023/01/11 11:44:06;;;;;;;17.33;9.43;;;4.90;99.90;;;;;;4914687;29;20091;-74
2023/01/11 11:46:32;;;;;;;15.70;8.63;;;5.00;99.90;;;;;;4915144;29;20067;-74
2023/01/11 11:49:34;;;;;;;19.58;8.85;;;5.00;99.90;;;;;;4915432;29;20508;-74
2023/01/11 11:52:03;;;;;;;20.88;9.02;;;5.10;99.90;;;;;;4876494;29;20127;-73
2023/01/11 11:54:32;;;;;;;17.13;9.48;;;5.20;99.90;;;;;;4894094;29;20039;-73
2023/01/11 11:57:24;;;;;;;17.50;9.75;;;5.20;99.90;;;;;;4924700;29;21980;-74
2023/01/11 11:59:59;;;;;;;16.35;8.20;;;5.20;99.90;;;;;;4908142;29;20470;-74
2023/01/11 12:02:29;;;;;;;18.15;8.88;;;5.30;99.90;;;;;;4933182;29;20070;-74
2023/01/11 12:04:57;;;;;;;18.80;8.95;;;5.30;99.90;;;;;;4933933;29;20042;-74
2023/01/11 12:07:47;;;;;;;19.70;10.05;;;5.30;99.90;;;;;;4932453;29;20114;-74
2023/01/11 12:10:18;;;;;;;25.27;11.20;;;5.30;99.90;;;;;;4893092;29;20440;-74
2023/01/11 12:13:02;;;;;;;21.05;11.50;;;5.30;99.90;;;;;;4877608;29;20045;-74
2023/01/11 12:15:32;;;;;;;22.83;11.02;;;5.40;99.90;;;;;;4893018;29;20120;-74
2023/01/11 12:18:18;;;;;;;13.82;8.63;;;5.40;99.90;;;;;;4894256;29;20107;-73
2023/01/11 12:20:46;;;;;;;17.65;8.60;;;5.40;99.90;;;;;;4880124;29;20127;-73
2023/01/11 12:23:23;;;;;;;19.58;10.00;;;5.40;99.90;;;;;;4880205;29;20040;-72
2023/01/11 12:26:09;;;;;;;20.92;9.75;;;5.40;99.90;;;;;;4888098;29;20085;-74
2023/01/11 12:29:08;;;;;;;30.83;17.48;;;5.40;99.90;;;;;;4928009;29;20035;-74
2023/01/11 12:32:01;;;;;;;34.28;17.85;;;5.50;99.90;;;;;;4932738;29;20163;-74
2023/01/11 12:34:50;;;;;;;59.03;30.05;;;5.40;99.90;;;;;;4932235;29;20052;-73
2023/01/11 12:37:37;;;;;;;35.08;18.55;;;5.50;99.90;;;;;;4926067;29;20127;-74
2023/01/11 12:40:17;;;;;;;25.00;13.93;;;5.50;99.90;;;;;;4932532;29;20142;-74
2023/01/11 12:42:53;;;;;;;23.38;12.10;;;5.50;99.90;;;;;;4933316;29;20035;-74
2023/01/11 12:45:27;;;;;;;35.28;17.08;;;5.40;99.90;;;;;;4932984;29;20582;-74
2023/01/11 12:48:11;;;;;;;32.53;17.50;;;5.40;99.90;;;;;;4968949;28;20045;-74
2023/01/11 12:50:40;;;;;;;31.17;16.08;;;5.40;99.90;;;;;;5006984;28;20022;-72
2023/01/11 12:53:05;;;;;;;45.10;25.45;;;5.50;99.90;;;;;;5012065;28;20036;-74
2023/01/11 12:55:49;;;;;;;59.45;28.05;;;5.50;99.90;;;;;;5012733;28;20026;-74
2023/01/11 12:58:31;;;;;;;;;;;5.50;99.90;;;;;;5000524;28;20469;-74
2023/01/11 13:01:12;;;;;;;31.02;16.50;;;5.40;99.90;;;;;;5002569;28;19955;-74
2023/01/11 13:03:47;;;;;;;23.73;13.00;;;5.40;99.90;;;;;;5008101;28;20092;-74
2023/01/11 13:06:23;;;;;;;18.73;10.77;;;5.30;99.90;;;;;;5010543;28;20045;-74
2023/01/11 13:09:18;;;;;;;20.23;11.02;;;5.30;99.90;;;;;;5010751;28;20041;-74
2023/01/11 13:12:07;;;;;;;21.10;12.73;;;5.30;99.90;;;;;;5010786;28;20080;-73
2023/01/11 13:14:51;;;;;;;19.50;10.05;;;5.40;99.90;;;;;;5011159;28;20044;-74
2023/01/11 13:17:51;;;;;;;21.17;11.45;;;5.40;99.90;;;;;;5012318;28;20113;-73
2023/01/11 13:20:44;;;;;;;19.85;12.20;;;5.40;99.90;;;;;;4932917;29;20094;-74
2023/01/11 13:23:19;;;;;;;19.55;11.07;;;5.40;99.90;;;;;;4931321;29;20063;-74
2023/01/11 13:25:48;;;;;;;17.30;8.40;;;5.40;99.90;;;;;;4932472;29;20464;-73
2023/01/11 13:28:37;;;;;;;18.02;10.23;;;5.40;99.90;;;;;;4942538;29;20031;-74
2023/01/11 13:31:06;;;;;;;20.48;9.93;;;5.40;99.90;;;;;;4932269;29;20039;-74
2023/01/11 13:33:35;;;;;;;20.58;11.07;;;5.40;99.90;;;;;;4932673;29;20040;-74
2023/01/11 13:36:13;;;;;;;19.83;10.32;;;5.40;99.90;;;;;;4932605;29;20036;-73
2023/01/11 13:38:53;;;;;;;17.02;9.63;;;5.50;99.90;;;;;;4933398;29;20060;-73
2023/01/11 13:41:50;;;;;;;15.88;9.75;;;5.50;99.90;;;;;;4938503;29;20063;-73
2023/01/11 13:44:23;;;;;;;16.60;9.23;;;5.40;99.90;;;;;;4838779;29;20618;-73
2023/01/11 13:47:07;;;;;;;18.80;9.27;;;5.40;99.90;;;;;;4843268;29;20053;-73